メインページ
METAR-TAF:

METAR-TAF

空港 :

アカプルコ, メキシコ

アカプルコ国際空港

緯度: 16-46N, 経度: 099-45W, 海抜: 5m

現時点の気象観測

当レポートは48分前の21:45(UTC)に作成
西/南西の風 9kt
気温 31°C
湿度 75%
気圧 1010 hPa
視程: 12.9km
高度30000ftの雲は散在している

METAR: MMAA 262145Z 24009KT 8SM SCT300 31/26 A2982 RMK 8/002 DSNT TCU N

時間: 17:33 (22:33 UTC)

予報

当レポートは5時間50分前の16:43(UTC)に作成
予報は26日の 18時(UTC)から 27日の 24時(UTC)まで有効
西/南西の風 5kt
視程: 10km
高度1500ftの雲は散在している
高度10000ftの千切れ雲あり
26日の 20時(UTC)から 26日の 21時(UTC)まで徐々に
西/南西の風 12kt
27日の 0100時(UTC)から
西の風 8kt
視程: 8.0km
高度1500ftの雲は散在している, 積乱雲.
高度1500ftの千切れ雲あり, 積乱雲.
激しい雷雨, 雨
27日の 0800時(UTC)から
北/北西の風 5kt
視程: 10km
高度1500ftの雲は散在している
高度10000ftの千切れ雲あり
確率 40%
27日の 08時(UTC)から 27日の 12時(UTC)まで
視程: 9.7km
小雨
27日の 1300時(UTC)から
の風 5kt
視程: 9.7km
高度1500ftの雲は散在している
高度10000ftの雲は散在している
高度30000ftの千切れ雲あり
煙霧
27日の 2000時(UTC)から
西/南西の風 12kt
視程: 10km
高度1500ftの雲は散在している, 積乱雲.
高度30000ftの千切れ雲あり
確率 40%
27日の 21時(UTC)から 27日の 24時(UTC)まで
近辺で, にわか雨

TAF: MMAA 261643Z 2618/2724 24005KT P6SM SCT015 BKN100 TX31/2622Z TN26/2713Z BECMG 2620/2621 24012KT FM270100 28008KT P6SM SCT015CB BKN100TEMPO 2703/2707 5SM TSRA BKN015CB FM270800 34005KT P6SM SCT015 BKN100 PROB40 2708/2712 6SM -RA FM271300 35005KT 6SM HZ SCT015 SCT100 BKN300 FM272000 24012KT P6SM SCT015CB BKN300 PROB40 2721/2724 VC SH

4,000以上の空港の気象観測と天気予報(METAR報とTAF報)

利用可能な観測所は地図上に黄色い丸と赤い丸で示す。

丸の上にカーソルを重ねると観測所名を参照できる。

次にクリックすると気象観測と天気予報を参照できる。

マップの切り替え:黒色「×」印の緑ボタンをクリックして拡大、「-」印の緑ボタンをクリックして縮小、緑色の三角印をクリックして隣りの地図に切り替え


METAR-TAF: